Reno, NV (89501)

12:39 AM PDT on September 22, 2014 (GMT -0700)
MidTown | Change Station
CLOSE
Current Station
Personal Weather Station
Location: Reno, NV
Elevation: 4491 ft
Nearby Weather Stations
Active Advisory: Dense Smoke Advisory

Elev 4491 ft 39.52 °N, 119.81 °W | Updated 50 seconds ago

Clear
Clear
59.0 °F
Feels Like 59.0 °F
N
-
Wind Variable Wind from North

Today
High -- | Low -- °F
--% Chance of Precip.
Yesterday
High -- | Low -- °F
Precip. -- in
6:46 AM 6:56 PM
Waning Crescent, 4% visible
Pressure 30.01 in
Visibility 7.0 miles
Clouds Clear
Dew Point 41 °F
Humidity 51%
Rainfall 0.00 in
Snow Depth Not available.
UV 0 out of 12
Pollen 6.20 out of 12
Air Quality Not available.
Flu Activity Not available.
METAR KRNO 220655Z 18003KT 7SM CLR 16/07 A3013 RMK AO2 SLP160 FU ALQDS T01560072

More Conditions Fewer Conditions

Pressure 30.01 in
Visibility 7.0 miles
Clouds Clear
Dew Point 41 °F
Humidity 51%
Rainfall 0.00 in
Snow Depth Not available.
UV 0 out of 12
Pollen 6.20 out of 12
Air Quality Not available.
Flu Activity Not available.
METAR KRNO 220655Z 18003KT 7SM CLR 16/07 A3013 RMK AO2 SLP160 FU ALQDS T01560072

More Conditions Fewer Conditions

10-Day Weather Forecast

Almanac

Astronomy

Sep. 22, 2014 Rise Set
Actual Time 6:46 AM PDT 6:56 PM PDT
Civil Twilight 6:20 AM PDT 7:22 PM PDT
Nautical Twilight 5:48 AM PDT 7:54 PM PDT
Astronomical Twilight 5:16 AM PDT 8:26 PM PDT
Moon 5:20 AM PDT 6:06 PM PDT
Length of Visible Light 13h 02m
Length of Day
12h 09m
Tomorrow will be 2m 34s shorter.
Waning Crescent, 4% of the Moon is Illuminated
Today
Waning Crescent
Sep 24
New
Oct 1
First Quarter
Oct 8
Full
Oct 15
Last Quarter

Today's Extremes

State Highs State Lows

Community

WunderPhotos

Upload Photos

1,755,392 photos uploaded!

Nearby

Snow Depth

Station Depth Elevation
Green Mountain 0 in 8000 ft
Disaster Peak 0 in 6500 ft
Lewis Peak 0 in 7400 ft
Mt. Rose Ski Area 0 in 8850 ft
Jacks Peak 4 in 8420 ft

Earthquake Activity

City Distance Mag. Time & Date
Gabbs, Nevada 98 miles 3.3 4:37 AM PDT
2014-09-19
Livermore, California 164 miles 2.6 3:37 AM PDT
2014-09-19
Minimum magnitude displayed is 2.5.

Coastal Water Temperatures

Place Temperature
No Stations Reporting

Nearby Weather Stations